createdAt,value
2019-04-07T00:00:07.412Z,72.23
2019-04-07T00:01:06.860Z,72.61
2019-04-07T00:02:06.895Z,72.13
2019-04-07T00:03:06.959Z,72.61
2019-04-07T00:04:06.849Z,72.80
2019-04-07T00:05:12.378Z,72.32
2019-04-07T00:06:06.839Z,72.42
2019-04-07T00:07:06.910Z,72.03
2019-04-07T00:08:06.837Z,72.23
2019-04-07T00:09:07.094Z,72.03
2019-04-07T00:10:07.159Z,72.32
2019-04-07T00:11:06.817Z,72.89
2019-04-07T00:12:07.102Z,72.71
2019-04-07T00:13:07.119Z,72.48
2019-04-07T00:14:07.095Z,72.51
2019-04-07T00:15:06.997Z,72.67
2019-04-07T00:16:07.202Z,72.67
2019-04-07T00:17:06.791Z,72.28
2019-04-07T00:18:06.786Z,72.76
2019-04-07T00:19:06.782Z,72.76
2019-04-07T00:20:07.313Z,72.86
2019-04-07T00:21:06.772Z,73.72
2019-04-07T00:22:06.768Z,73.91
2019-04-07T00:23:06.842Z,73.81
2019-04-07T00:24:06.764Z,74.77
2019-04-07T00:25:06.753Z,74.57
2019-04-07T00:26:06.748Z,74.77
2019-04-07T00:27:06.918Z,75.62
2019-04-07T00:28:06.739Z,75.20
2019-04-07T00:29:06.734Z,75.78
2019-04-07T00:30:06.730Z,75.40
2019-04-07T00:31:06.726Z,75.49
2019-04-07T00:32:06.725Z,75.49
2019-04-07T00:33:06.720Z,74.92
2019-04-07T00:34:07.033Z,75.53
2019-04-07T00:35:06.708Z,74.96
2019-04-07T00:36:07.319Z,74.96
2019-04-07T00:37:07.283Z,74.73
2019-04-07T00:38:07.338Z,75.20
2019-04-07T00:39:06.882Z,75.11
2019-04-07T00:40:07.023Z,74.63
2019-04-07T00:41:06.845Z,75.30
2019-04-07T00:42:07.192Z,75.30
2019-04-07T00:43:06.666Z,75.30
2019-04-07T00:44:07.117Z,75.96
2019-04-07T00:45:06.665Z,76.16
2019-04-07T00:46:06.656Z,76.82
2019-04-07T00:47:06.657Z,76.54
2019-04-07T00:48:06.906Z,77.30
2019-04-07T00:49:06.657Z,77.11
2019-04-07T00:50:06.651Z,76.54
2019-04-07T00:51:06.678Z,76.92
2019-04-07T00:52:07.072Z,76.59
2019-04-07T00:53:06.619Z,76.54
2019-04-07T00:54:07.282Z,77.30
2019-04-07T00:55:06.636Z,76.88
2019-04-07T00:56:06.670Z,77.11
2019-04-07T00:57:06.670Z,77.55
2019-04-07T00:58:07.105Z,77.36
2019-04-07T00:59:06.589Z,77.74
2019-04-07T01:00:07.074Z,77.83
2019-04-07T01:01:06.586Z,78.41
2019-04-07T01:02:06.962Z,78.41
2019-04-07T01:03:07.132Z,78.50
2019-04-07T01:04:06.568Z,78.59
2019-04-07T01:05:07.243Z,78.88
2019-04-07T01:06:06.560Z,79.07
2019-04-07T01:07:06.552Z,78.50
2019-04-07T01:08:06.544Z,78.88
2019-04-07T01:09:07.008Z,78.78
2019-04-07T01:10:06.537Z,78.98
2019-04-07T01:11:06.536Z,78.98
2019-04-07T01:12:07.215Z,78.22
2019-04-07T01:13:06.559Z,78.12
2019-04-07T01:14:07.007Z,78.31
2019-04-07T01:15:06.513Z,78.41
2019-04-07T01:16:06.667Z,78.31
2019-04-07T01:17:07.065Z,78.98
2019-04-07T01:18:06.495Z,79.64
2019-04-07T01:19:07.180Z,78.59
2019-04-07T01:20:06.483Z,79.46
2019-04-07T01:21:06.477Z,78.56
2019-04-07T01:22:06.521Z,79.13
2019-04-07T01:23:06.983Z,78.88
2019-04-07T01:24:06.515Z,79.36
2019-04-07T01:25:07.091Z,79.17
2019-04-07T01:26:06.472Z,79.07
2019-04-07T01:27:06.608Z,78.78
2019-04-07T01:28:06.673Z,78.22
2019-04-07T01:29:06.436Z,78.31
2019-04-07T01:30:07.113Z,77.93
2019-04-07T01:31:07.129Z,77.64
2019-04-07T01:32:07.119Z,78.41
2019-04-07T01:33:06.477Z,77.83
2019-04-07T01:34:06.409Z,77.64
2019-04-07T01:35:07.026Z,77.55
2019-04-07T01:36:06.413Z,77.93
2019-04-07T01:37:06.395Z,78.22
2019-04-07T01:38:07.114Z,78.31
2019-04-07T01:39:06.442Z,78.12
2019-04-07T01:40:06.378Z,78.17
2019-04-07T01:41:06.370Z,77.93
2019-04-07T01:42:06.584Z,79.13
2019-04-07T01:43:06.477Z,78.65
2019-04-07T01:44:06.355Z,78.85
2019-04-07T01:45:06.351Z,78.94
2019-04-07T01:46:06.415Z,78.94
2019-04-07T01:47:06.342Z,79.32
2019-04-07T01:48:06.333Z,79.70
2019-04-07T01:49:08.049Z,80.08
2019-04-07T01:50:06.576Z,79.99
2019-04-07T01:51:06.319Z,80.18
2019-04-07T01:52:06.316Z,79.99
2019-04-07T01:53:06.709Z,79.89
2019-04-07T01:54:06.421Z,80.08
2019-04-07T01:55:06.431Z,80.46
2019-04-07T01:56:06.450Z,80.18
2019-04-07T01:57:06.285Z,79.80
2019-04-07T01:58:06.279Z,79.41
2019-04-07T01:59:06.700Z,78.65
2019-04-07T02:00:06.268Z,78.85
2019-04-07T02:01:06.554Z,78.56
2019-04-07T02:02:06.261Z,78.65
2019-04-07T02:03:06.410Z,78.85
2019-04-07T02:04:06.778Z,78.94
2019-04-07T02:05:06.738Z,78.65
2019-04-07T02:06:06.838Z,78.94
2019-04-07T02:07:06.231Z,78.56
2019-04-07T02:08:06.656Z,78.85
2019-04-07T02:09:06.218Z,79.03
2019-04-07T02:10:06.212Z,78.75
2019-04-07T02:11:06.210Z,78.94
2019-04-07T02:12:06.911Z,79.32
2019-04-07T02:13:06.201Z,79.13
2019-04-07T02:14:07.014Z,78.94
2019-04-07T02:15:06.347Z,78.65
2019-04-07T02:16:06.179Z,78.65
2019-04-07T02:17:06.482Z,78.56
2019-04-07T02:18:06.171Z,78.85
2019-04-07T02:19:06.283Z,79.03
2019-04-07T02:20:06.789Z,78.75
2019-04-07T02:21:06.329Z,78.85
2019-04-07T02:22:06.922Z,79.51
2019-04-07T02:23:06.344Z,79.41
2019-04-07T02:24:06.128Z,79.13
2019-04-07T02:25:06.393Z,79.60
2019-04-07T02:26:06.123Z,80.27
2019-04-07T02:27:06.131Z,79.60
2019-04-07T02:28:06.450Z,79.89
2019-04-07T02:29:06.656Z,79.70
2019-04-07T02:30:06.110Z,79.99
2019-04-07T02:31:06.231Z,80.27
2019-04-07T02:32:06.236Z,80.36
2019-04-07T02:33:06.281Z,79.89
2019-04-07T02:34:06.834Z,80.75
2019-04-07T02:35:06.076Z,80.55
2019-04-07T02:36:16.033Z,80.27
2019-04-07T02:37:06.621Z,80.65
2019-04-07T02:38:06.239Z,80.61
2019-04-07T02:39:06.046Z,80.46
2019-04-07T02:40:06.312Z,80.99
2019-04-07T02:41:06.231Z,80.65
2019-04-07T02:42:06.033Z,81.13
2019-04-07T02:43:06.038Z,79.99
2019-04-07T02:44:06.862Z,80.18
2019-04-07T02:45:06.013Z,79.70
2019-04-07T02:46:06.014Z,80.75
2019-04-07T02:47:06.464Z,81.03
2019-04-07T02:48:06.894Z,81.18
2019-04-07T02:49:05.986Z,81.18
2019-04-07T02:50:07.109Z,82.90
2019-04-07T02:51:05.978Z,83.18
2019-04-07T02:52:05.969Z,83.09
2019-04-07T02:53:05.964Z,83.37
2019-04-07T02:54:05.982Z,82.80
2019-04-07T02:55:06.293Z,82.32
2019-04-07T02:56:06.614Z,82.80
2019-04-07T02:57:06.437Z,82.70
2019-04-07T02:58:05.978Z,82.51
2019-04-07T02:59:05.964Z,82.61
2019-04-07T03:00:06.362Z,82.61
2019-04-07T03:01:06.152Z,82.90
2019-04-07T03:02:06.001Z,82.80
2019-04-07T03:03:05.907Z,83.09
2019-04-07T03:04:05.900Z,83.85
2019-04-07T03:05:06.410Z,83.65
2019-04-07T03:06:06.840Z,83.42
2019-04-07T03:07:06.769Z,83.71
2019-04-07T03:08:05.922Z,84.28
2019-04-07T03:09:05.873Z,83.18
2019-04-07T03:10:05.866Z,82.51
2019-04-07T03:11:05.865Z,82.61
2019-04-07T03:12:05.856Z,82.14
2019-04-07T03:13:06.222Z,82.23
2019-04-07T03:14:07.055Z,82.80
2019-04-07T03:15:06.836Z,82.61
2019-04-07T03:16:05.830Z,82.51
2019-04-07T03:17:06.667Z,82.61
2019-04-07T03:18:06.860Z,82.61
2019-04-07T03:19:06.604Z,82.70
2019-04-07T03:20:07.008Z,82.70
2019-04-07T03:21:05.805Z,82.70
2019-04-07T03:22:06.533Z,82.90
2019-04-07T03:23:05.794Z,83.28
2019-04-07T03:24:06.211Z,83.37
2019-04-07T03:25:06.538Z,83.75
2019-04-07T03:26:05.773Z,84.33
2019-04-07T03:27:06.562Z,84.00
2019-04-07T03:28:06.723Z,84.85
2019-04-07T03:29:05.766Z,84.28
2019-04-07T03:30:06.190Z,84.28
2019-04-07T03:31:06.155Z,84.09
2019-04-07T03:32:07.870Z,83.90
2019-04-07T03:33:08.807Z,84.00
2019-04-07T03:34:06.318Z,85.14
2019-04-07T03:35:06.469Z,84.76
2019-04-07T03:36:08.590Z,84.76
2019-04-07T03:37:27.047Z,85.04
2019-04-07T03:38:06.484Z,84.95
2019-04-07T03:39:06.484Z,84.47
2019-04-07T03:40:06.542Z,84.28
2019-04-07T03:41:05.681Z,84.19
2019-04-07T03:42:06.261Z,84.38
2019-04-07T03:43:05.669Z,84.19
2019-04-07T03:44:06.119Z,84.28
2019-04-07T03:45:06.154Z,84.47
2019-04-07T03:46:06.018Z,84.09
2019-04-07T03:47:06.989Z,84.38
2019-04-07T03:48:06.904Z,84.95
2019-04-07T03:49:06.050Z,84.09
2019-04-07T03:50:05.627Z,84.19
2019-04-07T03:51:06.674Z,84.28
2019-04-07T03:52:05.776Z,84.85
2019-04-07T03:53:06.083Z,84.76
2019-04-07T03:54:05.600Z,84.47
2019-04-07T03:55:06.586Z,84.66
2019-04-07T03:56:05.961Z,84.76
2019-04-07T03:57:05.581Z,85.04
2019-04-07T03:58:05.844Z,85.61
2019-04-07T03:59:05.639Z,85.61
2019-04-07T04:00:05.895Z,85.99
2019-04-07T04:01:05.556Z,85.99
2019-04-07T04:02:05.549Z,86.38
2019-04-07T04:03:05.544Z,86.47
2019-04-07T04:04:05.653Z,86.47
2019-04-07T04:05:05.528Z,86.43
2019-04-07T04:06:05.525Z,86.47
2019-04-07T04:07:20.694Z,86.57
2019-04-07T04:08:06.169Z,87.23
2019-04-07T04:09:05.964Z,87.13
2019-04-07T04:10:06.541Z,86.66
2019-04-07T04:11:06.209Z,86.38
2019-04-07T04:12:07.089Z,86.61
2019-04-07T04:13:05.483Z,86.61
2019-04-07T04:14:05.470Z,85.80
2019-04-07T04:15:06.692Z,85.80
2019-04-07T04:16:06.185Z,85.33
2019-04-07T04:17:06.284Z,85.71
2019-04-07T04:18:05.531Z,85.24
2019-04-07T04:19:06.626Z,85.71
2019-04-07T04:20:06.220Z,85.42
2019-04-07T04:21:05.440Z,85.24
2019-04-07T04:22:05.928Z,85.52
2019-04-07T04:23:05.915Z,85.61
2019-04-07T04:24:06.066Z,85.80
2019-04-07T04:25:05.403Z,85.33
2019-04-07T04:26:06.335Z,85.33
2019-04-07T04:27:05.394Z,85.24
2019-04-07T04:28:05.377Z,85.42
2019-04-07T04:29:05.750Z,85.52
2019-04-07T04:30:05.366Z,85.61
2019-04-07T04:31:05.357Z,85.42
2019-04-07T04:32:05.847Z,85.61
2019-04-07T04:33:06.267Z,85.33
2019-04-07T04:34:05.495Z,84.95
2019-04-07T04:35:06.460Z,84.95
2019-04-07T04:36:05.703Z,85.42
2019-04-07T04:37:05.324Z,85.24
2019-04-07T04:38:06.013Z,85.42
2019-04-07T04:39:05.322Z,85.04
2019-04-07T04:40:05.298Z,84.38
2019-04-07T04:41:05.295Z,84.66
2019-04-07T04:42:05.645Z,84.47
2019-04-07T04:43:05.281Z,84.95
2019-04-07T04:44:05.272Z,84.47
2019-04-07T04:45:06.204Z,84.47
2019-04-07T04:46:08.666Z,84.66
2019-04-07T04:47:05.251Z,84.66
2019-04-07T04:48:05.243Z,84.95
2019-04-07T04:49:05.236Z,84.66
2019-04-07T04:50:06.336Z,85.04
2019-04-07T04:51:05.414Z,84.95
2019-04-07T04:52:05.301Z,85.04
2019-04-07T04:53:06.105Z,85.80
2019-04-07T04:54:05.242Z,85.52
2019-04-07T04:55:05.194Z,85.33
2019-04-07T04:56:05.578Z,85.33
2019-04-07T04:57:07.703Z,85.24
2019-04-07T04:58:05.469Z,85.71
2019-04-07T04:59:06.023Z,85.24
2019-04-07T05:00:05.274Z,85.80
2019-04-07T05:01:05.151Z,85.99
2019-04-07T05:02:05.673Z,85.52
2019-04-07T05:03:05.139Z,85.99
2019-04-07T05:04:05.133Z,86.38
2019-04-07T05:05:08.079Z,86.28
2019-04-07T05:06:05.119Z,86.28
2019-04-07T05:07:05.706Z,87.04
2019-04-07T05:08:05.526Z,86.18
2019-04-07T05:09:05.613Z,85.99
2019-04-07T05:10:05.696Z,85.90
2019-04-07T05:11:05.085Z,85.99
2019-04-07T05:12:06.123Z,85.80
2019-04-07T05:13:05.079Z,85.52
2019-04-07T05:14:05.063Z,85.61
2019-04-07T05:15:05.128Z,85.42
2019-04-07T05:16:05.683Z,85.14
2019-04-07T05:17:05.209Z,85.42
2019-04-07T05:18:05.263Z,85.33
2019-04-07T05:19:05.037Z,85.71
2019-04-07T05:20:05.777Z,85.04
2019-04-07T05:21:05.239Z,84.80
2019-04-07T05:22:05.067Z,84.33
2019-04-07T05:23:05.235Z,84.13
2019-04-07T05:24:05.692Z,83.65
2019-04-07T05:25:05.144Z,83.56
2019-04-07T05:26:05.728Z,83.28
2019-04-07T05:27:04.978Z,82.99
2019-04-07T05:28:04.972Z,81.70
2019-04-07T05:29:04.965Z,80.22
2019-04-07T05:30:05.032Z,78.41
2019-04-07T05:31:05.627Z,78.35
2019-04-07T05:32:05.645Z,77.11
2019-04-07T05:33:05.547Z,77.20
2019-04-07T05:34:05.387Z,76.57
2019-04-07T05:35:05.897Z,75.34
2019-04-07T05:36:04.918Z,74.99
2019-04-07T05:37:04.913Z,74.27
2019-04-07T05:38:06.618Z,72.74
2019-04-07T05:39:05.337Z,72.17
2019-04-07T05:40:04.913Z,71.69
2019-04-07T05:41:05.426Z,72.45
2019-04-07T05:42:04.887Z,72.36
2019-04-07T05:43:04.880Z,72.07
2019-04-07T05:44:04.871Z,71.88
2019-04-07T05:45:05.140Z,71.02
2019-04-07T05:46:07.093Z,70.96
2019-04-07T05:47:04.856Z,69.91
2019-04-07T05:48:05.442Z,69.27
2019-04-07T05:49:05.368Z,68.99
2019-04-07T05:50:05.299Z,67.65
2019-04-07T05:51:05.518Z,67.55
2019-04-07T05:52:05.860Z,67.40
2019-04-07T05:53:06.791Z,66.35
2019-04-07T05:54:04.822Z,65.97
2019-04-07T05:55:04.880Z,66.28
2019-04-07T05:56:06.018Z,65.23
2019-04-07T05:57:05.454Z,64.28
2019-04-07T05:58:07.226Z,64.69
2019-04-07T05:59:04.803Z,63.99
2019-04-07T06:00:04.790Z,64.31
2019-04-07T06:01:05.225Z,62.77
2019-04-07T06:02:04.782Z,62.77
2019-04-07T06:03:08.243Z,63.70
2019-04-07T06:04:05.541Z,63.99
2019-04-07T06:05:05.334Z,63.64
2019-04-07T06:06:05.032Z,63.51
2019-04-07T06:07:04.765Z,63.06
2019-04-07T06:08:20.909Z,62.81
2019-04-07T06:09:05.200Z,61.11
2019-04-07T06:10:05.373Z,59.52
2019-04-07T06:11:05.019Z,58.30
2019-04-07T06:12:09.084Z,57.63
2019-04-07T06:13:05.330Z,57.12
2019-04-07T06:14:05.008Z,59.81
2019-04-07T06:15:05.279Z,61.31
2019-04-07T06:16:05.349Z,62.59
2019-04-07T06:17:04.958Z,62.23
2019-04-07T06:18:05.139Z,61.31
2019-04-07T06:19:07.921Z,59.45
2019-04-07T06:20:04.724Z,59.84
2019-04-07T06:21:04.822Z,61.37
2019-04-07T06:22:07.436Z,61.50
2019-04-07T06:23:04.714Z,59.26
2019-04-07T06:24:04.790Z,57.89
2019-04-07T06:25:05.773Z,57.18
2019-04-07T06:26:09.256Z,56.31
2019-04-07T06:27:05.500Z,55.19
2019-04-07T06:28:05.410Z,55.29
2019-04-07T06:29:04.822Z,54.74
2019-04-07T06:30:04.704Z,53.87
2019-04-07T06:31:04.920Z,52.94
2019-04-07T06:32:05.548Z,52.36
2019-04-07T06:33:06.972Z,51.67
2019-04-07T06:34:08.680Z,53.34
2019-04-07T06:35:05.117Z,55.97
2019-04-07T06:36:05.032Z,58.72
2019-04-07T06:37:04.686Z,60.03
2019-04-07T06:38:06.147Z,59.84
2019-04-07T06:39:04.705Z,60.61
2019-04-07T06:40:04.760Z,61.57
2019-04-07T06:41:04.682Z,60.35
2019-04-07T06:42:05.790Z,60.06
2019-04-07T06:43:06.327Z,59.75
2019-04-07T06:44:11.412Z,61.28
2019-04-07T06:45:05.316Z,61.40
2019-04-07T06:46:04.890Z,59.83
2019-04-07T06:47:04.730Z,58.23
2019-04-07T06:48:07.652Z,57.18
2019-04-07T06:49:04.665Z,57.18
2019-04-07T06:50:05.630Z,55.38
2019-04-07T06:51:04.985Z,55.29
2019-04-07T06:52:04.859Z,54.52
2019-04-07T06:53:05.351Z,55.40
2019-04-07T06:54:04.819Z,58.44
2019-04-07T06:55:04.659Z,59.58
2019-04-07T06:56:05.221Z,59.13
2019-04-07T06:57:06.351Z,59.13
2019-04-07T06:58:08.074Z,58.05
2019-04-07T06:59:04.671Z,60.32
2019-04-07T07:00:04.655Z,60.93
2019-04-07T07:01:04.715Z,60.73
2019-04-07T07:02:05.421Z,59.71
2019-04-07T07:03:04.655Z,59.61
2019-04-07T07:04:08.600Z,59.52
2019-04-07T07:05:05.182Z,60.35
2019-04-07T07:06:04.755Z,61.47
2019-04-07T07:07:06.327Z,62.81
2019-04-07T07:08:05.174Z,61.40
2019-04-07T07:09:04.646Z,59.64
2019-04-07T07:10:06.292Z,57.46
2019-04-07T07:11:05.809Z,57.46
2019-04-07T07:12:05.102Z,57.23
2019-04-07T07:13:09.324Z,55.99
2019-04-07T07:14:04.643Z,56.34
2019-04-07T07:15:04.710Z,57.21
2019-04-07T07:16:08.524Z,56.15
2019-04-07T07:17:05.357Z,56.24
2019-04-07T07:18:04.726Z,56.63
2019-04-07T07:19:05.200Z,55.57
2019-04-07T07:20:05.744Z,57.56
2019-04-07T07:21:05.075Z,57.30
2019-04-07T07:22:10.073Z,56.98
2019-04-07T07:23:04.716Z,57.01
2019-04-07T07:24:04.974Z,57.50
2019-04-07T07:25:05.205Z,56.08
2019-04-07T07:26:04.646Z,56.34
2019-04-07T07:27:07.286Z,56.40
2019-04-07T07:28:04.640Z,55.60
2019-04-07T07:29:06.495Z,56.37
2019-04-07T07:30:04.652Z,55.63
2019-04-07T07:31:05.313Z,56.24
2019-04-07T07:32:04.927Z,57.28
2019-04-07T07:33:07.306Z,59.80
2019-04-07T07:34:05.059Z,61.85
2019-04-07T07:35:05.086Z,64.12
2019-04-07T07:36:04.642Z,65.68
2019-04-07T07:37:05.210Z,65.84
2019-04-07T07:38:04.930Z,66.22
2019-04-07T07:39:08.561Z,66.41
2019-04-07T07:40:07.495Z,67.14
2019-04-07T07:41:04.764Z,67.63
2019-04-07T07:42:04.635Z,67.82
2019-04-07T07:43:04.639Z,68.29
2019-04-07T07:44:07.577Z,68.10
2019-04-07T07:45:08.100Z,67.91
2019-04-07T07:46:04.631Z,68.20
2019-04-07T07:47:04.630Z,68.13
2019-04-07T07:48:05.285Z,67.76
2019-04-07T07:49:04.628Z,67.85
2019-04-07T07:50:05.393Z,67.66
2019-04-07T07:51:07.187Z,67.76
2019-04-07T07:52:04.963Z,67.94
2019-04-07T07:53:04.748Z,67.60
2019-04-07T07:54:04.735Z,66.74
2019-04-07T07:55:04.613Z,66.45
2019-04-07T07:56:08.186Z,66.25
2019-04-07T07:57:04.961Z,66.06
2019-04-07T07:58:04.607Z,66.06
2019-04-07T07:59:04.668Z,65.94
2019-04-07T08:00:06.971Z,67.69
2019-04-07T08:01:05.336Z,66.83
2019-04-07T08:02:04.595Z,66.45
2019-04-07T08:03:04.864Z,66.64
2019-04-07T08:04:05.225Z,66.74
2019-04-07T08:05:05.327Z,66.06
2019-04-07T08:06:07.955Z,66.96
2019-04-07T08:07:05.431Z,66.29
2019-04-07T08:08:04.800Z,65.78
2019-04-07T08:09:11.173Z,65.42
2019-04-07T08:10:04.875Z,65.49
2019-04-07T08:11:04.633Z,65.52
2019-04-07T08:12:05.166Z,64.85
2019-04-07T08:13:07.489Z,65.05
2019-04-07T08:14:04.570Z,64.95
2019-04-07T08:15:04.917Z,64.66
2019-04-07T08:16:05.089Z,64.76
2019-04-07T08:17:04.561Z,64.66
2019-04-07T08:18:07.295Z,64.28
2019-04-07T08:19:08.411Z,64.56
2019-04-07T08:20:04.552Z,64.37
2019-04-07T08:21:04.549Z,64.37
2019-04-07T08:22:06.457Z,64.47
2019-04-07T08:23:05.242Z,64.02
2019-04-07T08:24:04.545Z,63.73
2019-04-07T08:25:05.216Z,63.73
2019-04-07T08:26:04.964Z,64.02
2019-04-07T08:27:05.147Z,63.92
2019-04-07T08:28:04.730Z,63.73
2019-04-07T08:29:06.796Z,63.45
2019-04-07T08:30:06.984Z,63.35
2019-04-07T08:31:04.529Z,63.54
2019-04-07T08:32:05.352Z,62.87
2019-04-07T08:33:04.893Z,62.81
2019-04-07T08:34:04.517Z,61.18
2019-04-07T08:35:05.633Z,61.37
2019-04-07T08:36:04.514Z,59.93
2019-04-07T08:37:04.825Z,59.06
2019-04-07T08:38:04.617Z,59.74
2019-04-07T08:39:05.013Z,60.03
2019-04-07T08:40:07.243Z,60.22
2019-04-07T08:41:08.725Z,60.03
2019-04-07T08:42:09.604Z,60.03
2019-04-07T08:43:04.496Z,59.93
2019-04-07T08:44:04.497Z,59.93
2019-04-07T08:45:04.626Z,59.96
2019-04-07T08:46:05.122Z,59.48
2019-04-07T08:47:04.485Z,59.86
2019-04-07T08:48:05.012Z,59.74
2019-04-07T08:49:04.482Z,60.15
2019-04-07T08:50:04.505Z,59.86
2019-04-07T08:51:04.726Z,59.19
2019-04-07T08:52:08.744Z,59.29
2019-04-07T08:53:04.695Z,58.91
2019-04-07T08:54:05.076Z,58.71
2019-04-07T08:55:05.004Z,58.81
2019-04-07T08:56:06.868Z,58.33
2019-04-07T08:57:04.625Z,57.85
2019-04-07T08:58:05.677Z,58.62
2019-04-07T08:59:08.459Z,58.62
2019-04-07T09:00:05.117Z,57.37
2019-04-07T09:01:05.294Z,57.37
2019-04-07T09:02:05.388Z,56.89
2019-04-07T09:03:10.528Z,56.60
2019-04-07T09:04:04.534Z,56.41
2019-04-07T09:05:04.514Z,57.08
2019-04-07T09:06:04.769Z,57.08
2019-04-07T09:07:05.117Z,57.46
2019-04-07T09:08:06.067Z,57.37
2019-04-07T09:09:07.218Z,57.37
2019-04-07T09:10:04.446Z,57.18
2019-04-07T09:11:04.694Z,57.15
2019-04-07T09:12:04.840Z,57.72
2019-04-07T09:13:07.971Z,57.43
2019-04-07T09:14:06.364Z,57.46
2019-04-07T09:15:05.291Z,57.06
2019-04-07T09:16:04.721Z,57.37
2019-04-07T09:17:04.702Z,57.65
2019-04-07T09:18:04.476Z,57.37
2019-04-07T09:19:06.792Z,58.14
2019-04-07T09:20:08.532Z,57.75
2019-04-07T09:21:04.594Z,58.42
2019-04-07T09:22:04.439Z,58.33
2019-04-07T09:23:06.578Z,58.55
2019-04-07T09:24:05.013Z,58.36
2019-04-07T09:25:08.506Z,58.26
2019-04-07T09:26:04.403Z,58.52
2019-04-07T09:27:04.405Z,58.33
2019-04-07T09:28:04.400Z,58.52
2019-04-07T09:29:05.112Z,58.81
2019-04-07T09:30:06.095Z,58.42
2019-04-07T09:31:04.604Z,58.04
2019-04-07T09:32:04.429Z,58.81
2019-04-07T09:33:04.397Z,59.19
2019-04-07T09:34:04.391Z,59.29
2019-04-07T09:35:07.068Z,58.55
2019-04-07T09:36:04.401Z,58.74
2019-04-07T09:37:04.503Z,57.78
2019-04-07T09:38:04.383Z,57.59
2019-04-07T09:39:04.381Z,57.40
2019-04-07T09:40:05.487Z,57.21
2019-04-07T09:41:04.379Z,57.40
2019-04-07T09:42:04.377Z,57.59
2019-04-07T09:43:05.347Z,56.82
2019-04-07T09:44:05.216Z,57.59
2019-04-07T09:45:07.425Z,57.50
2019-04-07T09:46:04.952Z,57.04
2019-04-07T09:47:04.367Z,53.94
2019-04-07T09:48:04.372Z,53.17
2019-04-07T09:49:04.548Z,52.69
2019-04-07T09:50:04.845Z,52.69
2019-04-07T09:51:07.163Z,52.40
2019-04-07T09:52:04.359Z,52.40
2019-04-07T09:53:04.363Z,52.12
2019-04-07T09:54:05.164Z,52.40
2019-04-07T09:55:04.573Z,52.22
2019-04-07T09:56:05.739Z,52.02
2019-04-07T09:57:06.952Z,51.95
2019-04-07T09:58:07.968Z,52.53
2019-04-07T09:59:04.351Z,52.34
2019-04-07T10:00:07.123Z,52.24
2019-04-07T10:01:06.717Z,51.18
2019-04-07T10:02:06.293Z,51.28
2019-04-07T10:03:07.738Z,51.76
2019-04-07T10:04:07.077Z,50.99
2019-04-07T10:05:04.338Z,50.49
2019-04-07T10:06:04.338Z,51.25
2019-04-07T10:07:04.750Z,52.14
2019-04-07T10:08:04.432Z,51.18
2019-04-07T10:09:04.348Z,51.76
2019-04-07T10:10:10.797Z,50.61
2019-04-07T10:11:05.223Z,50.32
2019-04-07T10:12:04.804Z,50.51
2019-04-07T10:13:04.331Z,50.32
2019-04-07T10:14:04.474Z,50.23
2019-04-07T10:15:04.322Z,50.70
2019-04-07T10:16:07.811Z,50.63
2019-04-07T10:17:05.187Z,50.70
2019-04-07T10:18:04.318Z,50.90
2019-04-07T10:19:04.331Z,51.57
2019-04-07T10:20:05.128Z,50.61
2019-04-07T10:21:04.313Z,49.93
2019-04-07T10:22:04.314Z,50.03
2019-04-07T10:23:05.073Z,50.32
2019-04-07T10:24:04.307Z,50.61
2019-04-07T10:25:04.466Z,49.65
2019-04-07T10:26:04.307Z,48.88
2019-04-07T10:27:04.312Z,49.74
2019-04-07T10:28:07.225Z,49.84
2019-04-07T10:29:04.616Z,50.61
2019-04-07T10:30:04.669Z,49.93
2019-04-07T10:31:04.753Z,49.74
2019-04-07T10:32:04.615Z,49.74
2019-04-07T10:33:04.311Z,49.65
2019-04-07T10:34:05.072Z,49.84
2019-04-07T10:35:04.293Z,49.52
2019-04-07T10:36:04.890Z,50.23
2019-04-07T10:37:05.012Z,50.13
2019-04-07T10:38:04.345Z,49.84
2019-04-07T10:39:04.400Z,50.05
2019-04-07T10:40:16.343Z,50.05
2019-04-07T10:41:04.488Z,49.87
2019-04-07T10:42:05.298Z,49.19
2019-04-07T10:43:04.282Z,48.59
2019-04-07T10:44:04.930Z,49.17
2019-04-07T10:45:04.807Z,49.36
2019-04-07T10:46:04.280Z,49.84
2019-04-07T10:47:04.917Z,49.29
2019-04-07T10:48:04.275Z,49.00
2019-04-07T10:49:04.455Z,48.23
2019-04-07T10:50:07.381Z,48.04
2019-04-07T10:51:04.481Z,47.30
2019-04-07T10:52:04.509Z,46.59
2019-04-07T10:53:04.887Z,46.89
2019-04-07T10:54:04.907Z,47.75
2019-04-07T10:55:04.955Z,47.97
2019-04-07T10:56:04.263Z,48.13
2019-04-07T10:57:05.005Z,48.35
2019-04-07T10:58:04.350Z,48.07
2019-04-07T10:59:04.391Z,48.07
2019-04-07T11:00:04.652Z,47.94
2019-04-07T11:01:04.259Z,47.75
2019-04-07T11:02:04.259Z,46.89
2019-04-07T11:03:04.873Z,46.89
2019-04-07T11:04:04.910Z,47.94
2019-04-07T11:05:05.101Z,48.13
2019-04-07T11:06:05.122Z,48.23
2019-04-07T11:07:04.555Z,47.66
2019-04-07T11:08:04.969Z,47.94
2019-04-07T11:09:04.768Z,47.87
2019-04-07T11:10:04.829Z,47.66
2019-04-07T11:11:04.542Z,48.07
2019-04-07T11:12:04.628Z,47.87
2019-04-07T11:13:04.402Z,48.45
2019-04-07T11:14:04.850Z,47.41
2019-04-07T11:15:04.905Z,46.43
2019-04-07T11:16:04.950Z,46.43
2019-04-07T11:17:04.851Z,46.31
2019-04-07T11:18:04.390Z,46.41
2019-04-07T11:19:04.728Z,46.89
2019-04-07T11:20:04.284Z,46.53
2019-04-07T11:21:04.662Z,46.53
2019-04-07T11:22:04.621Z,46.43
2019-04-07T11:23:04.235Z,46.45
2019-04-07T11:24:04.233Z,44.62
2019-04-07T11:25:04.231Z,43.47
2019-04-07T11:26:04.663Z,42.03
2019-04-07T11:27:04.918Z,42.49
2019-04-07T11:28:04.631Z,42.37
2019-04-07T11:29:04.229Z,43.45
2019-04-07T11:30:05.102Z,44.22
2019-04-07T11:31:04.227Z,44.70
2019-04-07T11:32:04.229Z,44.89
2019-04-07T11:33:05.086Z,44.31
2019-04-07T11:34:04.418Z,45.47
2019-04-07T11:35:04.907Z,44.43
2019-04-07T11:36:04.225Z,44.02
2019-04-07T11:37:04.915Z,43.35
2019-04-07T11:38:04.706Z,44.31
2019-04-07T11:39:04.223Z,44.29
2019-04-07T11:40:04.821Z,45.45
2019-04-07T11:41:04.328Z,45.35
2019-04-07T11:42:05.747Z,44.87
2019-04-07T11:43:04.440Z,44.22
2019-04-07T11:44:04.217Z,44.34
2019-04-07T11:45:04.951Z,44.22
2019-04-07T11:46:04.636Z,44.82
2019-04-07T11:47:04.940Z,44.62
2019-04-07T11:48:04.433Z,43.85
2019-04-07T11:49:04.333Z,43.85
2019-04-07T11:50:04.938Z,44.45
2019-04-07T11:51:04.210Z,42.82
2019-04-07T11:52:04.210Z,42.82
2019-04-07T11:53:04.939Z,40.51
2019-04-07T11:54:04.212Z,41.53
2019-04-07T11:55:04.206Z,43.47
2019-04-07T11:56:08.128Z,44.43
2019-04-07T11:57:05.521Z,44.05
2019-04-07T11:58:13.677Z,43.95
2019-04-07T11:59:06.851Z,42.20
2019-04-07T12:00:04.205Z,42.89
2019-04-07T12:01:04.716Z,41.55
2019-04-07T12:02:06.839Z,40.28
2019-04-07T12:03:04.935Z,41.16
2019-04-07T12:04:04.202Z,39.43
2019-04-07T12:05:04.413Z,40.39
2019-04-07T12:06:04.214Z,40.01
2019-04-07T12:07:04.647Z,40.76
2019-04-07T12:08:04.960Z,41.02
2019-04-07T12:09:04.890Z,41.72
2019-04-07T12:10:05.060Z,42.77
2019-04-07T12:11:06.241Z,41.91
2019-04-07T12:12:04.747Z,40.18
2019-04-07T12:13:04.810Z,40.47
2019-04-07T12:14:04.198Z,37.87
2019-04-07T12:15:04.240Z,38.07
2019-04-07T12:16:04.609Z,38.74
2019-04-07T12:17:07.571Z,39.70
2019-04-07T12:18:07.124Z,39.89
2019-04-07T12:19:04.498Z,39.31
2019-04-07T12:20:04.297Z,39.12
2019-04-07T12:21:06.167Z,39.89
2019-04-07T12:22:08.746Z,41.53
2019-04-07T12:23:04.796Z,40.56
2019-04-07T12:24:04.776Z,40.18
2019-04-07T12:25:05.419Z,40.88
2019-04-07T12:26:05.138Z,41.64
2019-04-07T12:27:04.798Z,41.35
2019-04-07T12:28:04.315Z,40.89
2019-04-07T12:29:04.182Z,40.49
2019-04-07T12:30:04.398Z,39.04
2019-04-07T12:31:04.185Z,39.72
2019-04-07T12:32:05.107Z,38.37
2019-04-07T12:33:06.527Z,38.66
2019-04-07T12:34:04.965Z,39.62
2019-04-07T12:35:04.291Z,41.08
2019-04-07T12:36:05.106Z,40.80
2019-04-07T12:37:07.570Z,41.38
2019-04-07T12:38:05.184Z,41.66
2019-04-07T12:39:04.279Z,40.03
2019-04-07T12:40:04.375Z,40.70
2019-04-07T12:41:13.479Z,41.18
2019-04-07T12:42:06.260Z,41.47
2019-04-07T12:43:04.630Z,40.99
2019-04-07T12:44:04.528Z,41.68
2019-04-07T12:45:04.763Z,41.66
2019-04-07T12:46:04.190Z,41.95
2019-04-07T12:47:04.875Z,41.18
2019-04-07T12:48:04.735Z,41.38
2019-04-07T12:49:07.748Z,41.45
2019-04-07T12:50:05.092Z,41.83
2019-04-07T12:51:04.175Z,42.03
2019-04-07T12:52:04.371Z,42.03